Time;durP1;ratioP1;P1;durP2;ratioP2;P2;SDS_P1;SDS_P2;PMS_P1;PMS_P2;Temp;Humidity;BMP_temperature;BMP_pressure;BME280_temperature;BME280_humidity;BME280_pressure;Samples;Min_cycle;Max_cycle;Signal;HPM_P1;HPM_P2
2022/05/06 00:00:16;;;;;;;3.00;2.80;;;19.70;42.80;;;;;;5078404;27;20241;-58
2022/05/06 00:02:42;;;;;;;3.03;2.87;;;19.70;42.90;;;;;;5077810;28;20260;-59
2022/05/06 00:05:10;;;;;;;2.60;2.50;;;19.70;42.90;;;;;;5079568;28;20890;-59
2022/05/06 00:07:36;;;;;;;3.10;2.90;;;19.70;42.90;;;;;;5075902;28;20243;-58
2022/05/06 00:10:04;;;;;;;2.70;2.50;;;19.70;43.00;;;;;;5075148;28;20465;-58
2022/05/06 00:12:30;;;;;;;3.00;2.80;;;19.70;42.90;;;;;;5080004;28;20261;-58
2022/05/06 00:14:56;;;;;;;2.90;2.70;;;19.60;42.80;;;;;;5076837;27;20425;-58
2022/05/06 00:17:22;;;;;;;2.70;2.60;;;19.70;42.90;;;;;;5079753;28;20462;-58
2022/05/06 00:19:47;;;;;;;2.60;2.50;;;19.60;42.90;;;;;;5082508;28;20423;-58
2022/05/06 00:22:13;;;;;;;2.90;2.73;;;19.70;43.70;;;;;;5084532;28;20259;-58
2022/05/06 00:24:39;;;;;;;3.07;2.83;;;19.60;42.90;;;;;;5079581;28;20655;-58
2022/05/06 00:27:05;;;;;;;3.27;3.07;;;19.60;42.90;;;;;;5080371;27;20213;-58
2022/05/06 00:29:31;;;;;;;3.20;3.00;;;19.60;42.90;;;;;;5077389;27;20304;-58
2022/05/06 00:31:56;;;;;;;3.00;2.80;;;19.70;43.10;;;;;;5083184;27;20248;-58
2022/05/06 00:34:22;;;;;;;3.00;2.80;;;19.60;43.00;;;;;;5075816;28;20449;-59
2022/05/06 00:36:48;;;;;;;4.03;2.70;;;19.60;42.90;;;;;;5073029;28;20240;-58
2022/05/06 00:39:14;;;;;;;3.13;2.93;;;19.60;43.00;;;;;;5077981;28;20931;-58
2022/05/06 00:41:39;;;;;;;3.07;2.87;;;19.60;43.00;;;;;;5082565;27;20216;-57
2022/05/06 00:44:06;;;;;;;2.70;2.50;;;19.60;43.00;;;;;;5078077;28;20388;-58
2022/05/06 00:46:33;;;;;;;3.10;2.90;;;19.60;43.00;;;;;;5078831;27;20214;-57
2022/05/06 00:49:00;;;;;;;3.87;3.67;;;19.60;43.00;;;;;;5076667;28;20488;-58
2022/05/06 00:51:26;;;;;;;2.40;2.30;;;19.60;43.00;;;;;;5075945;27;20453;-59
2022/05/06 00:53:54;;;;;;;2.40;2.30;;;19.60;43.10;;;;;;5079064;27;20425;-57
2022/05/06 00:56:24;;;;;;;3.20;2.90;;;19.60;43.00;;;;;;5077894;28;20220;-58
2022/05/06 00:58:51;;;;;;;2.87;2.67;;;19.60;43.10;;;;;;5079440;28;20435;-58
2022/05/06 01:01:17;;;;;;;2.90;2.70;;;19.60;43.10;;;;;;5082206;28;20472;-58
2022/05/06 01:03:42;;;;;;;3.10;2.90;;;19.60;43.00;;;;;;5083822;27;21014;-58
2022/05/06 01:06:13;;;;;;;2.50;2.40;;;19.60;43.10;;;;;;5082083;27;20221;-58
2022/05/06 01:08:40;;;;;;;3.17;2.97;;;19.60;43.10;;;;;;5082821;28;20244;-58
2022/05/06 01:11:07;;;;;;;2.73;2.63;;;19.60;43.10;;;;;;5078838;28;20882;-57
2022/05/06 01:13:40;;;;;;;4.30;3.80;;;19.60;43.10;;;;;;5084374;27;20509;-59
2022/05/06 01:16:06;;;;;;;2.80;2.60;;;19.60;43.10;;;;;;5080296;28;20884;-58
2022/05/06 01:18:32;;;;;;;3.17;2.97;;;19.60;43.20;;;;;;5082502;27;20486;-58
2022/05/06 01:21:00;;;;;;;2.67;2.57;;;19.60;43.10;;;;;;5081465;28;20842;-61
2022/05/06 01:23:26;;;;;;;2.73;2.63;;;19.60;43.10;;;;;;5083878;28;20735;-58
2022/05/06 01:25:52;;;;;;;2.80;2.70;;;19.60;43.20;;;;;;5081189;28;20519;-58
2022/05/06 01:28:21;;;;;;;2.87;2.70;;;19.60;43.10;;;;;;5083215;27;20213;-58
2022/05/06 01:30:47;;;;;;;2.70;2.60;;;19.60;43.10;;;;;;5082061;28;20428;-58
2022/05/06 01:33:16;;;;;;;2.80;2.60;;;19.60;43.10;;;;;;5085151;28;20509;-58
2022/05/06 01:36:05;;;;;;;3.07;2.87;;;19.60;43.10;;;;;;5083890;27;20525;-60
2022/05/06 01:38:37;;;;;;;3.20;3.00;;;19.60;43.20;;;;;;5072859;27;20785;-59
2022/05/06 01:41:05;;;;;;;2.80;2.70;;;19.60;43.10;;;;;;5080607;27;20422;-59
2022/05/06 01:43:42;;;;;;;2.73;2.50;;;19.60;43.10;;;;;;5084685;28;20425;-59
2022/05/06 01:46:09;;;;;;;2.63;2.53;;;19.60;43.20;;;;;;5079992;28;20454;-58
2022/05/06 01:48:36;;;;;;;3.40;3.20;;;19.60;43.20;;;;;;5084411;28;20770;-58
2022/05/06 01:51:02;;;;;;;2.87;2.67;;;19.60;43.20;;;;;;5083564;28;20434;-58
2022/05/06 01:53:28;;;;;;;3.30;3.10;;;19.60;43.20;;;;;;5082800;27;20828;-57
2022/05/06 01:55:54;;;;;;;3.20;3.00;;;19.60;43.20;;;;;;5085166;28;20442;-58
2022/05/06 01:58:20;;;;;;;3.37;3.17;;;19.60;43.30;;;;;;5081851;28;20446;-58
2022/05/06 02:00:46;;;;;;;2.67;2.47;;;19.60;43.20;;;;;;5082220;27;20226;-59
2022/05/06 02:05:57;;;;;;;2.90;2.80;;;19.50;43.20;;;;;;5080787;28;20540;-59
2022/05/06 02:08:22;;;;;;;3.20;3.00;;;19.60;43.30;;;;;;5079741;28;20542;-58
2022/05/06 02:10:48;;;;;;;2.90;2.70;;;19.50;43.20;;;;;;5080274;28;20304;-58
2022/05/06 02:13:14;;;;;;;4.00;3.70;;;19.60;43.30;;;;;;5080373;28;20278;-58
2022/05/06 02:15:40;;;;;;;3.50;3.30;;;19.60;43.30;;;;;;5082864;27;20334;-58
2022/05/06 02:18:06;;;;;;;3.13;2.93;;;19.50;43.20;;;;;;5079353;28;20236;-59
2022/05/06 02:20:31;;;;;;;2.87;2.77;;;19.50;43.20;;;;;;5077918;28;20541;-58
2022/05/06 02:22:57;;;;;;;3.00;2.80;;;19.50;43.20;;;;;;5080436;28;20845;-58
2022/05/06 02:25:23;;;;;;;2.90;2.70;;;19.50;43.20;;;;;;5089047;28;20229;-58
2022/05/06 02:27:50;;;;;;;3.23;3.03;;;19.50;43.20;;;;;;5080909;27;20593;-58
2022/05/06 02:33:12;;;;;;;3.07;2.87;;;19.50;43.30;;;;;;5076817;28;20531;-58
2022/05/06 02:35:39;;;;;;;3.23;3.03;;;19.50;43.30;;;;;;5083290;27;20525;-59
2022/05/06 02:38:06;;;;;;;3.30;3.10;;;19.50;43.20;;;;;;5082194;27;20459;-59
2022/05/06 02:40:34;;;;;;;3.30;3.10;;;19.50;43.30;;;;;;5081748;28;20473;-58
2022/05/06 02:43:00;;;;;;;3.10;2.90;;;19.50;43.30;;;;;;5078999;27;20449;-58
2022/05/06 02:45:26;;;;;;;3.63;3.33;;;19.50;43.20;;;;;;5077730;28;20442;-60
2022/05/06 02:47:52;;;;;;;3.37;3.17;;;19.50;43.30;;;;;;5082624;28;20535;-58
2022/05/06 02:50:17;;;;;;;3.57;3.37;;;19.50;43.30;;;;;;5082279;27;20217;-58
2022/05/06 02:52:43;;;;;;;2.97;2.87;;;19.50;43.30;;;;;;5077837;27;20229;-58
2022/05/06 02:55:08;;;;;;;3.43;3.23;;;19.50;43.30;;;;;;5085522;27;20251;-58
2022/05/06 02:57:34;;;;;;;3.20;3.00;;;19.50;43.30;;;;;;5079944;28;20776;-58
2022/05/06 03:00:00;;;;;;;3.20;3.00;;;19.50;43.30;;;;;;5076240;27;20252;-58
2022/05/06 03:02:25;;;;;;;3.43;3.23;;;19.50;43.30;;;;;;5081038;27;20218;-58
2022/05/06 03:04:51;;;;;;;3.40;3.20;;;19.50;43.30;;;;;;5078115;28;20236;-58
2022/05/06 03:07:16;;;;;;;3.07;2.87;;;19.50;44.10;;;;;;5084502;28;20220;-59
2022/05/06 03:09:42;;;;;;;2.83;2.73;;;19.50;43.40;;;;;;5083353;28;20729;-58
2022/05/06 03:12:08;;;;;;;3.00;2.80;;;19.50;43.40;;;;;;5078250;27;20290;-58
2022/05/06 03:14:34;;;;;;;3.00;2.80;;;19.50;43.40;;;;;;5078626;28;20623;-58
2022/05/06 03:16:59;;;;;;;3.03;2.83;;;19.50;43.40;;;;;;5078463;28;20483;-59
2022/05/06 03:19:25;;;;;;;3.90;3.70;;;19.50;43.40;;;;;;5077577;28;20228;-58
2022/05/06 03:21:54;;;;;;;3.53;3.33;;;19.50;43.40;;;;;;5079266;28;20236;-58
2022/05/06 03:24:20;;;;;;;2.90;2.80;;;19.50;43.40;;;;;;5082287;27;20209;-57
2022/05/06 03:26:46;;;;;;;3.27;3.07;;;19.50;43.30;;;;;;5078232;27;20457;-59
2022/05/06 03:29:12;;;;;;;3.20;3.00;;;19.50;43.40;;;;;;5084654;28;20428;-59
2022/05/06 03:31:38;;;;;;;3.17;2.97;;;19.50;43.50;;;;;;5077035;27;20440;-59
2022/05/06 03:34:05;;;;;;;3.00;2.80;;;19.50;43.40;;;;;;5092798;27;20528;-59
2022/05/06 03:36:30;;;;;;;3.70;3.50;;;19.50;43.50;;;;;;5078246;27;20638;-58
2022/05/06 03:38:56;;;;;;;3.10;3.00;;;19.50;43.40;;;;;;5077915;28;20930;-59
2022/05/06 03:41:22;;;;;;;3.43;3.23;;;19.50;43.50;;;;;;5077821;28;20233;-58
2022/05/06 03:43:47;;;;;;;3.37;3.17;;;19.50;43.50;;;;;;5081168;27;20264;-58
2022/05/06 03:46:13;;;;;;;3.70;3.40;;;19.50;43.50;;;;;;5077423;27;20218;-58
2022/05/06 03:48:39;;;;;;;3.20;3.00;;;19.50;43.50;;;;;;5077145;28;20303;-58
2022/05/06 03:51:21;;;;;;;3.13;2.93;;;19.50;43.50;;;;;;5081712;27;20222;-58
2022/05/06 03:53:51;;;;;;;3.60;3.40;;;19.50;43.50;;;;;;5078922;28;20241;-58
2022/05/06 03:56:18;;;;;;;3.20;3.07;;;19.50;43.50;;;;;;5080151;27;20879;-58
2022/05/06 03:58:44;;;;;;;3.20;3.00;;;19.50;43.50;;;;;;5075076;28;20515;-58
2022/05/06 04:01:10;;;;;;;3.63;3.43;;;19.50;43.50;;;;;;5079139;28;20450;-58
2022/05/06 04:03:36;;;;;;;3.70;3.50;;;19.50;43.60;;;;;;5077561;28;20846;-58
2022/05/06 04:06:02;;;;;;;3.43;3.23;;;19.50;43.50;;;;;;5081427;28;20220;-59
2022/05/06 04:08:28;;;;;;;4.03;3.83;;;19.50;43.50;;;;;;5074623;28;20442;-59
2022/05/06 04:10:54;;;;;;;3.00;2.90;;;19.50;43.50;;;;;;5079154;27;20755;-58
2022/05/06 04:13:20;;;;;;;3.03;2.83;;;19.50;43.50;;;;;;5081699;28;20225;-58
2022/05/06 04:15:49;;;;;;;3.33;3.13;;;19.50;43.50;;;;;;5080103;27;20447;-58
2022/05/06 04:18:15;;;;;;;3.70;3.50;;;19.50;43.50;;;;;;5062909;27;20239;-58
2022/05/06 04:23:31;;;;;;;3.37;3.17;;;19.50;43.50;;;;;;5084215;28;20596;-59
2022/05/06 04:26:01;;;;;;;3.67;3.47;;;19.50;43.50;;;;;;5085341;28;20482;-58
2022/05/06 04:28:27;;;;;;;3.03;2.83;;;19.50;43.50;;;;;;5077223;27;20882;-59
2022/05/06 04:30:53;;;;;;;3.50;3.20;;;19.50;43.50;;;;;;5075327;28;20452;-58
2022/05/06 04:33:20;;;;;;;2.90;2.70;;;19.50;43.60;;;;;;5081953;28;20432;-58
2022/05/06 04:35:46;;;;;;;3.50;3.30;;;19.50;43.60;;;;;;5085550;28;20886;-59
2022/05/06 04:38:12;;;;;;;3.50;3.30;;;19.50;43.50;;;;;;5084466;28;20681;-59
2022/05/06 04:40:39;;;;;;;3.20;3.00;;;19.50;43.50;;;;;;5086690;28;20520;-59
2022/05/06 04:43:04;;;;;;;3.47;3.27;;;19.50;43.50;;;;;;5080481;28;20305;-59
2022/05/06 04:45:30;;;;;;;3.60;3.40;;;19.50;43.30;;;;;;5082338;28;20958;-59
2022/05/06 04:47:56;;;;;;;3.90;3.70;;;19.60;43.30;;;;;;5078459;27;20225;-60
2022/05/06 04:50:22;;;;;;;3.37;3.17;;;19.60;43.20;;;;;;5084754;27;20233;-58
2022/05/06 04:52:49;;;;;;;3.40;3.20;;;19.60;43.10;;;;;;5083208;28;20233;-58
2022/05/06 04:55:15;;;;;;;3.93;3.73;;;19.70;43.20;;;;;;5083755;28;20441;-57
2022/05/06 04:57:41;;;;;;;3.50;3.30;;;19.70;43.10;;;;;;5084203;27;20453;-59
2022/05/06 05:00:07;;;;;;;3.43;3.23;;;19.70;43.10;;;;;;5082589;28;20596;-59
2022/05/06 05:02:33;;;;;;;3.13;2.93;;;19.70;43.10;;;;;;5081112;27;20221;-59
2022/05/06 05:04:58;;;;;;;3.37;3.17;;;19.70;43.10;;;;;;5085244;28;20443;-58
2022/05/06 05:07:25;;;;;;;3.17;2.97;;;19.70;43.10;;;;;;5078004;28;20426;-58
2022/05/06 05:09:50;;;;;;;3.23;3.03;;;19.70;43.10;;;;;;5080589;27;20666;-59
2022/05/06 05:12:16;;;;;;;3.20;3.00;;;19.70;43.10;;;;;;5065384;28;20454;-58
2022/05/06 05:14:42;;;;;;;3.40;3.20;;;19.70;43.10;;;;;;5062704;28;20213;-58
2022/05/06 05:17:09;;;;;;;3.10;2.90;;;19.70;43.10;;;;;;5060164;28;20266;-58
2022/05/06 05:19:35;;;;;;;3.60;3.40;;;19.70;43.10;;;;;;5061946;28;20297;-58
2022/05/06 05:22:01;;;;;;;3.77;3.47;;;19.70;43.10;;;;;;5064168;28;20478;-59
2022/05/06 05:24:26;;;;;;;3.37;3.17;;;19.70;43.00;;;;;;5061453;28;20951;-58
2022/05/06 05:26:54;;;;;;;3.60;3.40;;;19.70;43.10;;;;;;5062202;28;20226;-58
2022/05/06 05:29:20;;;;;;;3.50;3.30;;;19.70;43.10;;;;;;5062423;28;20616;-58
2022/05/06 05:31:46;;;;;;;3.87;3.57;;;19.70;43.10;;;;;;5062505;28;20605;-59
2022/05/06 05:34:12;;;;;;;3.17;2.90;;;19.70;43.10;;;;;;5065689;28;20895;-59
2022/05/06 05:36:37;;;;;;;3.33;3.13;;;19.70;43.10;;;;;;5061026;28;20435;-62
2022/05/06 05:39:03;;;;;;;3.70;3.40;;;19.70;43.10;;;;;;5066462;28;20213;-59
2022/05/06 05:41:28;;;;;;;3.57;3.37;;;19.70;43.10;;;;;;5061257;28;20622;-61
2022/05/06 05:49:22;;;;;;;4.03;3.73;;;19.70;43.10;;;;;;5059916;28;21016;-58
2022/05/06 05:51:48;;;;;;;3.60;3.30;;;19.70;43.10;;;;;;5061735;28;20542;-60
2022/05/06 05:54:15;;;;;;;3.30;3.10;;;19.70;43.10;;;;;;5063127;28;20221;-60
2022/05/06 05:56:41;;;;;;;4.63;3.40;;;19.70;43.10;;;;;;5066769;28;20225;-60
2022/05/06 05:59:07;;;;;;;4.03;3.73;;;19.70;43.10;;;;;;5064568;28;20815;-59
2022/05/06 06:01:32;;;;;;;3.10;2.90;;;19.70;43.10;;;;;;5063591;28;20217;-58
2022/05/06 06:03:58;;;;;;;4.33;3.40;;;19.70;43.10;;;;;;5064987;28;20766;-59
2022/05/06 06:06:23;;;;;;;2.90;2.70;;;19.70;43.10;;;;;;5059939;28;20559;-58
2022/05/06 06:08:49;;;;;;;3.93;3.53;;;19.70;43.10;;;;;;5058233;28;20316;-58
2022/05/06 06:11:15;;;;;;;8.10;4.30;;;19.70;43.10;;;;;;5061439;28;20237;-57
2022/05/06 06:13:40;;;;;;;4.27;3.87;;;19.70;43.10;;;;;;5060022;28;20313;-58
2022/05/06 06:16:06;;;;;;;4.07;3.77;;;19.70;43.10;;;;;;5059889;28;20222;-58
2022/05/06 06:18:32;;;;;;;3.80;3.50;;;19.70;43.10;;;;;;5055751;28;20217;-57
2022/05/06 06:20:57;;;;;;;4.17;3.77;;;19.70;43.00;;;;;;5062462;28;20218;-57
2022/05/06 06:23:24;;;;;;;3.93;3.63;;;19.70;43.00;;;;;;5059801;28;20226;-57
2022/05/06 06:25:49;;;;;;;3.90;3.53;;;19.70;43.10;;;;;;5059580;28;20224;-58
2022/05/06 06:28:15;;;;;;;4.83;3.77;;;19.70;43.00;;;;;;5059283;28;20417;-57
2022/05/06 06:30:41;;;;;;;4.43;4.00;;;19.70;43.00;;;;;;5064421;28;20314;-58
2022/05/06 06:33:10;;;;;;;3.90;3.40;;;19.70;43.00;;;;;;5063951;28;20244;-57
2022/05/06 06:35:36;;;;;;;9.73;3.87;;;19.70;43.00;;;;;;5063888;28;20792;-57
2022/05/06 06:38:01;;;;;;;3.37;3.17;;;19.70;43.00;;;;;;5063639;28;20543;-58
2022/05/06 06:40:27;;;;;;;4.30;4.00;;;19.70;43.00;;;;;;5061624;28;20242;-58
2022/05/06 06:42:53;;;;;;;5.00;4.53;;;19.70;43.00;;;;;;5060590;28;20240;-57
2022/05/06 06:45:19;;;;;;;4.83;3.80;;;19.70;42.90;;;;;;5061417;28;20459;-58
2022/05/06 06:47:44;;;;;;;3.70;3.50;;;19.70;43.00;;;;;;5065103;28;20684;-58
2022/05/06 06:50:10;;;;;;;4.03;3.83;;;19.70;43.00;;;;;;5061747;28;20206;-58
2022/05/06 06:52:36;;;;;;;3.80;3.50;;;19.70;42.90;;;;;;5056325;28;20230;-57
2022/05/06 06:55:02;;;;;;;3.60;3.40;;;19.70;42.90;;;;;;5059329;28;20225;-57
2022/05/06 06:57:31;;;;;;;3.87;3.67;;;19.70;43.00;;;;;;5074696;28;20282;-58
2022/05/06 06:59:56;;;;;;;3.90;3.63;;;19.70;43.00;;;;;;5082034;27;20946;-57
2022/05/06 07:02:22;;;;;;;3.70;3.30;;;19.70;43.00;;;;;;5080022;28;20463;-57
2022/05/06 07:04:47;;;;;;;3.83;3.63;;;19.70;42.90;;;;;;5076852;28;20265;-57
2022/05/06 07:12:43;;;;;;;3.80;3.60;;;19.70;42.90;;;;;;5080552;27;20503;-57
2022/05/06 07:15:09;;;;;;;4.23;3.93;;;19.70;42.80;;;;;;5076330;28;20445;-57
2022/05/06 07:17:34;;;;;;;4.17;3.73;;;19.70;42.90;;;;;;5079468;27;20255;-57
2022/05/06 07:20:00;;;;;;;3.83;3.63;;;19.80;42.90;;;;;;5078583;28;20702;-57
2022/05/06 07:22:26;;;;;;;3.90;3.60;;;19.70;42.90;;;;;;5075294;28;20213;-57
2022/05/06 07:24:51;;;;;;;4.13;3.83;;;19.70;42.90;;;;;;5082129;27;20342;-57
2022/05/06 07:27:18;;;;;;;4.03;3.43;;;19.70;42.90;;;;;;5080168;27;20216;-58
2022/05/06 07:29:44;;;;;;;3.90;3.70;;;19.70;42.90;;;;;;5076987;28;20221;-57
2022/05/06 07:32:10;;;;;;;3.60;3.40;;;19.70;42.90;;;;;;5076459;28;20504;-57
2022/05/06 07:34:36;;;;;;;3.77;3.57;;;19.70;42.90;;;;;;5079645;27;21097;-56
2022/05/06 07:37:02;;;;;;;4.20;3.90;;;19.70;42.90;;;;;;5077726;28;20413;-58
2022/05/06 07:39:27;;;;;;;4.53;4.23;;;19.70;42.90;;;;;;5076896;28;21032;-57
2022/05/06 07:41:53;;;;;;;4.10;3.80;;;19.70;42.90;;;;;;5078321;27;20714;-56
2022/05/06 07:44:19;;;;;;;4.17;3.77;;;19.70;42.90;;;;;;5077406;28;20214;-56
2022/05/06 07:46:45;;;;;;;4.20;4.00;;;19.80;43.00;;;;;;5077567;27;20311;-57
2022/05/06 07:49:10;;;;;;;4.50;4.10;;;19.70;43.00;;;;;;5079433;28;20240;-56
2022/05/06 07:51:36;;;;;;;4.70;4.40;;;19.80;43.10;;;;;;5076408;28;20239;-57
2022/05/06 07:54:02;;;;;;;3.77;3.50;;;19.70;43.00;;;;;;5078283;28;20217;-56
2022/05/06 07:56:29;;;;;;;4.10;3.80;;;19.80;43.80;;;;;;5076114;28;20221;-57
2022/05/06 07:58:56;;;;;;;4.73;4.43;;;19.80;43.00;;;;;;5080933;27;20926;-56
2022/05/06 08:04:32;;;;;;;4.13;3.93;;;19.80;43.00;;;;;;5077404;28;20560;-56
2022/05/06 08:06:53;;;;;;;4.20;3.87;;;19.80;43.00;;;;;;5075320;27;20496;-57
2022/05/06 08:09:19;;;;;;;4.80;4.27;;;19.70;43.80;;;;;;5078503;28;20939;-56
2022/05/06 08:11:46;;;;;;;5.03;4.17;;;19.80;43.00;;;;;;5080171;27;20496;-57
2022/05/06 08:14:12;;;;;;;4.17;3.97;;;19.80;43.00;;;;;;5081457;27;20467;-57
2022/05/06 08:16:38;;;;;;;4.00;3.80;;;19.80;43.10;;;;;;5076345;28;20498;-57
2022/05/06 08:19:03;;;;;;;3.73;3.43;;;19.80;43.00;;;;;;5076962;28;20443;-57
2022/05/06 08:21:29;;;;;;;4.20;3.93;;;19.80;43.00;;;;;;5066377;28;20219;-59
2022/05/06 08:23:55;;;;;;;4.00;3.80;;;19.80;43.10;;;;;;5056829;28;20218;-59
2022/05/06 08:26:21;;;;;;;4.30;3.90;;;19.70;43.00;;;;;;5060991;28;20221;-56
2022/05/06 08:28:46;;;;;;;4.10;3.80;;;19.80;43.10;;;;;;5057442;28;20765;-57
2022/05/06 08:31:12;;;;;;;3.53;3.33;;;19.80;43.10;;;;;;5054059;28;20517;-57
2022/05/06 08:33:37;;;;;;;3.57;3.37;;;19.80;43.10;;;;;;5087465;28;20309;-59
2022/05/06 08:36:05;;;;;;;3.97;3.67;;;19.80;43.10;;;;;;5061702;28;20714;-58
2022/05/06 08:38:30;;;;;;;4.37;4.07;;;19.80;43.10;;;;;;5057722;28;20305;-57
2022/05/06 08:40:57;;;;;;;3.77;3.57;;;19.80;43.10;;;;;;5061392;28;21015;-57
2022/05/06 08:43:23;;;;;;;3.53;3.23;;;19.80;43.00;;;;;;5057596;28;20249;-57
2022/05/06 08:51:25;;;;;;;4.20;4.00;;;19.80;43.10;;;;;;5054733;28;20465;-56
2022/05/06 08:53:52;;;;;;;4.77;4.20;;;19.80;43.10;;;;;;5055793;28;21019;-57
2022/05/06 08:56:18;;;;;;;4.20;3.90;;;19.80;43.10;;;;;;5054992;28;20462;-57
2022/05/06 08:58:43;;;;;;;4.40;4.07;;;19.80;43.10;;;;;;5054911;28;20853;-56
2022/05/06 09:01:13;;;;;;;3.80;3.60;;;19.80;43.10;;;;;;5058225;28;20587;-57
2022/05/06 09:03:40;;;;;;;3.67;3.47;;;19.80;43.10;;;;;;5055930;28;20221;-57
2022/05/06 09:06:17;;;;;;;3.50;3.30;;;19.80;43.10;;;;;;5056929;28;20455;-57
2022/05/06 09:08:43;;;;;;;4.40;4.20;;;19.80;43.00;;;;;;5062377;28;20463;-57
2022/05/06 09:11:09;;;;;;;4.87;4.57;;;19.80;43.10;;;;;;5058642;28;20914;-57
2022/05/06 09:13:55;;;;;;;4.07;3.87;;;19.80;43.10;;;;;;5058613;28;20444;-57
2022/05/06 09:16:40;;;;;;;4.47;4.17;;;19.80;43.10;;;;;;5057502;28;20245;-58
2022/05/06 09:19:15;;;;;;;3.87;3.67;;;19.80;43.10;;;;;;5060195;28;20817;-57
2022/05/06 09:21:58;;;;;;;3.90;3.70;;;19.80;43.10;;;;;;5061546;28;20541;-58
2022/05/06 09:24:25;;;;;;;4.40;4.17;;;19.80;43.10;;;;;;5065716;28;20402;-57
2022/05/06 09:27:03;;;;;;;3.77;3.57;;;19.80;43.10;;;;;;5064334;28;20453;-56
2022/05/06 09:29:31;;;;;;;4.47;4.27;;;19.80;43.10;;;;;;5060080;28;20803;-57
2022/05/06 09:32:21;;;;;;;4.50;4.30;;;19.80;43.20;;;;;;5063100;28;20455;-57
2022/05/06 09:34:55;;;;;;;4.70;4.40;;;19.80;43.10;;;;;;5060099;28;20454;-57
2022/05/06 09:37:31;;;;;;;4.73;4.43;;;19.80;43.20;;;;;;5059034;28;20474;-57
2022/05/06 09:40:04;;;;;;;4.20;3.90;;;19.80;43.10;;;;;;5059155;28;20811;-57
2022/05/06 09:42:30;;;;;;;3.80;3.60;;;19.80;43.10;;;;;;5058737;28;20421;-57
2022/05/06 09:44:55;;;;;;;4.53;4.10;;;19.80;43.10;;;;;;5062328;28;21102;-58
2022/05/06 09:47:21;;;;;;;3.80;3.60;;;19.80;43.20;;;;;;5062975;28;20222;-57
2022/05/06 09:49:49;;;;;;;3.77;3.57;;;19.80;43.20;;;;;;5061069;28;20233;-57
2022/05/06 09:52:16;;;;;;;4.77;4.57;;;19.80;43.10;;;;;;5058973;28;20683;-57
2022/05/06 09:54:43;;;;;;;4.60;4.20;;;19.80;43.10;;;;;;5060482;28;20466;-57
2022/05/06 09:57:14;;;;;;;4.80;4.50;;;19.80;43.20;;;;;;5062359;28;20466;-57
2022/05/06 09:59:41;;;;;;;3.90;3.70;;;19.80;43.20;;;;;;5062440;28;21037;-57
2022/05/06 10:02:10;;;;;;;4.80;4.50;;;19.80;43.20;;;;;;5056736;28;20778;-57
2022/05/06 10:04:37;;;;;;;4.17;3.97;;;19.80;43.20;;;;;;5062609;28;21348;-57
2022/05/06 10:07:07;;;;;;;4.70;4.50;;;19.80;43.20;;;;;;5060605;28;20446;-57
2022/05/06 10:09:56;;;;;;;5.10;4.80;;;19.80;43.20;;;;;;5064349;28;20450;-57
2022/05/06 10:12:24;;;;;;;4.90;4.60;;;19.80;43.20;;;;;;5061321;28;20438;-57
2022/05/06 10:14:51;;;;;;;4.53;4.23;;;19.70;43.10;;;;;;5058658;28;20451;-57
2022/05/06 10:17:54;;;;;;;4.33;4.13;;;19.80;43.20;;;;;;5055076;28;20498;-57
2022/05/06 10:23:03;;;;;;;4.30;4.03;;;19.80;43.20;;;;;;5063571;28;20450;-57
2022/05/06 10:25:53;;;;;;;4.30;4.10;;;19.80;43.30;;;;;;5059166;28;20462;-57
2022/05/06 10:34:09;;;;;;;3.97;3.77;;;19.70;43.20;;;;;;5063198;28;20462;-57
2022/05/06 10:36:44;;;;;;;4.93;4.63;;;19.70;43.30;;;;;;5062028;28;21049;-57
2022/05/06 10:39:35;;;;;;;4.33;4.10;;;19.70;43.20;;;;;;5061811;28;20452;-57
2022/05/06 10:42:07;;;;;;;4.40;4.20;;;19.70;43.30;;;;;;5061541;28;20521;-57
2022/05/06 10:44:35;;;;;;;4.77;4.57;;;19.70;43.30;;;;;;5064052;28;20496;-57
2022/05/06 10:47:03;;;;;;;5.30;4.90;;;19.70;43.30;;;;;;5060635;28;20973;-57
2022/05/06 10:49:35;;;;;;;4.97;4.67;;;19.70;43.30;;;;;;5063884;28;20473;-57
2022/05/06 10:52:16;;;;;;;4.93;4.53;;;19.70;43.30;;;;;;5058323;28;21031;-57
2022/05/06 10:54:49;;;;;;;4.70;4.50;;;19.70;43.20;;;;;;5057442;28;20420;-58
2022/05/06 10:57:16;;;;;;;4.83;4.43;;;19.70;43.30;;;;;;5059965;28;20526;-57
2022/05/06 10:59:48;;;;;;;4.50;4.20;;;19.70;43.30;;;;;;5055532;28;20519;-57
2022/05/06 11:02:16;;;;;;;4.47;4.27;;;19.70;43.30;;;;;;5058607;28;20509;-57
2022/05/06 11:04:41;;;;;;;5.30;5.00;;;19.70;43.30;;;;;;5056703;28;20796;-57
2022/05/06 11:07:11;;;;;;;5.20;4.90;;;19.70;43.30;;;;;;5054967;28;20505;-57
2022/05/06 11:09:37;;;;;;;5.93;5.53;;;19.70;43.30;;;;;;5058609;28;20304;-57
2022/05/06 11:12:03;;;;;;;5.07;4.67;;;19.70;43.30;;;;;;5059989;28;20545;-57
2022/05/06 11:14:29;;;;;;;4.73;4.53;;;19.70;43.30;;;;;;5060493;28;20589;-57
2022/05/06 11:17:19;;;;;;;6.00;5.50;;;19.70;43.30;;;;;;5066581;28;20234;-57
2022/05/06 11:19:45;;;;;;;4.43;4.13;;;19.70;43.30;;;;;;5063579;28;20218;-57
2022/05/06 11:22:11;;;;;;;5.03;4.73;;;19.70;43.30;;;;;;5059457;28;20443;-58
2022/05/06 11:24:37;;;;;;;6.47;5.90;;;19.70;43.30;;;;;;5063862;28;20451;-57
2022/05/06 11:27:15;;;;;;;5.57;5.17;;;19.70;43.40;;;;;;5061568;28;20450;-57
2022/05/06 11:29:56;;;;;;;6.10;5.70;;;19.70;43.30;;;;;;5055901;28;20700;-57
2022/05/06 11:32:27;;;;;;;5.03;4.73;;;19.70;43.40;;;;;;5059754;28;20970;-57
2022/05/06 11:35:06;;;;;;;5.77;5.37;;;19.70;43.40;;;;;;5058619;28;20455;-58
2022/05/06 11:37:33;;;;;;;5.23;4.90;;;19.70;43.40;;;;;;5059597;28;20466;-57
2022/05/06 11:42:44;;;;;;;5.83;5.53;;;19.70;43.40;;;;;;5055942;28;20444;-57
2022/05/06 11:48:08;;;;;;;5.60;5.30;;;19.70;43.40;;;;;;5057336;28;20445;-58
2022/05/06 11:50:34;;;;;;;6.37;5.97;;;19.70;43.40;;;;;;5058844;28;20447;-58
2022/05/06 11:53:19;;;;;;;6.00;5.60;;;19.70;43.50;;;;;;5062882;28;20546;-57
2022/05/06 11:55:48;;;;;;;5.93;5.50;;;19.70;43.50;;;;;;5077043;27;20463;-57
2022/05/06 11:58:15;;;;;;;6.60;5.93;;;19.70;43.40;;;;;;5078915;27;20517;-58
2022/05/06 12:00:42;;;;;;;5.50;5.20;;;19.70;43.40;;;;;;5079189;27;20519;-57
2022/05/06 12:03:09;;;;;;;6.47;6.07;;;19.70;43.40;;;;;;5081222;27;20437;-57
2022/05/06 12:05:39;;;;;;;6.27;5.87;;;19.70;43.40;;;;;;5077928;27;20844;-57
2022/05/06 12:08:06;;;;;;;6.43;6.03;;;19.70;43.40;;;;;;5080401;27;21046;-57
2022/05/06 12:10:38;;;;;;;6.33;5.93;;;19.70;43.40;;;;;;5083109;27;20533;-57
2022/05/06 12:13:08;;;;;;;6.10;5.70;;;19.70;43.40;;;;;;5078956;27;20465;-57
2022/05/06 12:15:35;;;;;;;7.23;6.70;;;19.70;43.40;;;;;;5078703;27;20430;-57
2022/05/06 12:18:11;;;;;;;6.40;6.00;;;19.70;43.40;;;;;;5081374;27;20472;-58
2022/05/06 12:20:41;;;;;;;6.80;6.30;;;19.70;43.40;;;;;;5073671;28;20438;-57
2022/05/06 12:23:08;;;;;;;7.10;6.60;;;19.70;43.50;;;;;;5080048;27;20962;-57
2022/05/06 12:25:35;;;;;;;7.13;6.53;;;19.70;43.40;;;;;;5080850;27;20465;-58
2022/05/06 12:28:17;;;;;;;6.93;6.43;;;19.70;43.40;;;;;;5081494;27;20536;-57
2022/05/06 12:30:44;;;;;;;6.53;6.10;;;19.70;43.40;;;;;;5078419;27;20450;-57
2022/05/06 12:33:15;;;;;;;5.90;5.60;;;19.70;43.40;;;;;;5080202;27;20963;-57
2022/05/06 12:35:58;;;;;;;6.63;5.97;;;19.70;43.40;;;;;;5079306;27;20421;-57
2022/05/06 12:38:26;;;;;;;7.60;6.90;;;19.70;43.40;;;;;;5079173;27;20446;-57
2022/05/06 12:40:53;;;;;;;7.10;6.70;;;19.70;43.40;;;;;;5081754;27;20530;-57
2022/05/06 12:43:26;;;;;;;6.70;6.20;;;19.70;43.40;;;;;;5080184;27;20454;-57
2022/05/06 12:45:59;;;;;;;7.20;6.70;;;19.70;43.40;;;;;;5079716;27;20445;-57
2022/05/06 12:51:09;;;;;;;6.87;6.37;;;19.70;43.40;;;;;;5074475;27;20587;-57
2022/05/06 12:53:35;;;;;;;7.07;6.57;;;19.70;43.50;;;;;;5077253;27;20436;-56
2022/05/06 12:56:01;;;;;;;7.37;6.90;;;19.70;44.20;;;;;;5079525;28;20229;-56
2022/05/06 12:58:28;;;;;;;7.27;6.67;;;19.70;43.40;;;;;;5084880;27;20446;-57
2022/05/06 13:00:57;;;;;;;7.10;6.47;;;19.70;43.50;;;;;;5082527;27;20808;-56
2022/05/06 13:03:23;;;;;;;6.90;6.40;;;19.70;43.40;;;;;;5078431;28;20413;-57
2022/05/06 13:05:50;;;;;;;7.70;7.10;;;19.70;43.40;;;;;;5081491;27;20412;-59
2022/05/06 13:08:16;;;;;;;7.67;7.17;;;19.70;43.40;;;;;;5082219;27;20263;-58
2022/05/06 13:10:41;;;;;;;6.97;6.47;;;19.70;43.50;;;;;;5082085;27;20954;-57
2022/05/06 13:13:07;;;;;;;7.30;6.80;;;19.70;43.50;;;;;;5081651;27;20221;-57
2022/05/06 13:15:33;;;;;;;6.47;6.07;;;19.70;43.40;;;;;;5083284;27;20222;-57
2022/05/06 13:17:58;;;;;;;7.33;6.83;;;19.70;43.50;;;;;;5083592;27;20230;-57
2022/05/06 13:20:24;;;;;;;7.50;7.00;;;19.70;43.50;;;;;;5078686;27;20308;-57
2022/05/06 13:22:50;;;;;;;7.50;6.90;;;19.70;43.40;;;;;;5085546;27;20238;-58
2022/05/06 13:25:15;;;;;;;6.50;6.07;;;19.70;43.40;;;;;;5081553;28;20221;-58
2022/05/06 13:27:41;;;;;;;6.57;6.17;;;19.70;43.50;;;;;;5081202;27;20216;-57
2022/05/06 13:30:08;;;;;;;7.67;7.07;;;19.70;43.40;;;;;;5080418;28;20228;-58
2022/05/06 13:32:34;;;;;;;7.57;6.97;;;19.70;43.50;;;;;;5080766;28;20230;-59
2022/05/06 13:35:00;;;;;;;7.43;6.73;;;19.70;43.50;;;;;;5082703;27;20459;-57